createdAt,value
2023-04-16T00:00:57.646Z,7.00
2023-04-16T00:03:33.865Z,6.90
2023-04-16T00:06:02.283Z,6.90
2023-04-16T00:08:30.454Z,6.82
2023-04-16T00:10:58.529Z,6.70
2023-04-16T00:13:27.649Z,6.80
2023-04-16T00:15:55.795Z,6.80
2023-04-16T00:18:23.876Z,6.70
2023-04-16T00:20:52.035Z,6.70
2023-04-16T00:23:20.137Z,6.70
2023-04-16T00:25:48.186Z,6.60
2023-04-16T00:28:16.368Z,6.50
2023-04-16T00:30:44.549Z,6.42
2023-04-16T00:33:12.546Z,6.40
2023-04-16T00:35:41.343Z,6.40
2023-04-16T00:38:10.086Z,6.30
2023-04-16T00:40:38.308Z,6.20
2023-04-16T00:43:06.433Z,6.24
2023-04-16T00:45:34.803Z,6.28
2023-04-16T00:48:02.822Z,6.20
2023-04-16T00:50:31.231Z,6.08
2023-04-16T00:52:59.319Z,6.10
2023-04-16T00:55:27.394Z,6.20
2023-04-16T00:57:55.740Z,6.20
2023-04-16T01:00:23.808Z,6.20
2023-04-16T01:02:52.358Z,6.10
2023-04-16T01:05:20.920Z,6.10
2023-04-16T01:07:49.098Z,6.10
2023-04-16T01:10:17.174Z,6.10
2023-04-16T01:12:45.647Z,6.20
2023-04-16T01:15:13.706Z,6.00
2023-04-16T01:17:43.865Z,5.84
2023-04-16T01:20:12.101Z,5.90
2023-04-16T01:22:40.655Z,6.00
2023-04-16T01:25:08.858Z,6.00
2023-04-16T01:27:37.681Z,6.00
2023-04-16T01:30:06.655Z,6.00
2023-04-16T01:32:43.352Z,6.04
2023-04-16T01:35:11.489Z,6.10
2023-04-16T01:37:39.656Z,6.10
2023-04-16T01:40:08.653Z,6.16
2023-04-16T01:42:37.850Z,6.20
2023-04-16T01:45:06.736Z,6.20
2023-04-16T01:47:34.960Z,6.20
2023-04-16T01:50:04.021Z,6.16
2023-04-16T01:52:32.178Z,6.10
2023-04-16T01:55:00.354Z,6.10
2023-04-16T01:57:28.633Z,6.10
2023-04-16T01:59:57.010Z,6.10
2023-04-16T02:02:28.463Z,6.02
2023-04-16T02:04:57.579Z,5.90
2023-04-16T02:07:26.140Z,5.88
2023-04-16T02:09:54.269Z,5.90
2023-04-16T02:12:22.319Z,5.90
2023-04-16T02:14:50.345Z,5.90
2023-04-16T02:17:19.260Z,5.90
2023-04-16T02:19:50.481Z,5.80
2023-04-16T02:22:19.103Z,5.80
2023-04-16T02:24:47.440Z,5.60
2023-04-16T02:27:16.151Z,5.70
2023-04-16T02:29:44.612Z,5.60
2023-04-16T02:32:15.873Z,5.60
2023-04-16T02:34:45.664Z,5.60
2023-04-16T02:37:15.544Z,5.70
2023-04-16T02:39:44.178Z,5.60
2023-04-16T02:42:12.438Z,5.60
2023-04-16T02:44:40.698Z,5.60
2023-04-16T02:47:08.757Z,5.60
2023-04-16T02:49:36.955Z,5.50
2023-04-16T02:52:05.331Z,5.40
2023-04-16T02:54:33.343Z,5.30
2023-04-16T02:57:02.404Z,5.28
2023-04-16T02:59:30.452Z,5.28
2023-04-16T03:01:58.565Z,5.30
2023-04-16T03:04:26.751Z,5.40
2023-04-16T03:06:54.792Z,5.30
2023-04-16T03:09:22.694Z,5.20
2023-04-16T03:11:51.133Z,5.20
2023-04-16T03:14:19.138Z,5.20
2023-04-16T03:16:47.467Z,5.10
2023-04-16T03:19:15.553Z,5.10
2023-04-16T03:21:44.772Z,5.10
2023-04-16T03:24:13.651Z,5.00
2023-04-16T03:26:41.671Z,5.10
2023-04-16T03:29:10.899Z,5.10
2023-04-16T03:31:39.415Z,5.06
2023-04-16T03:34:07.562Z,5.00
2023-04-16T03:36:36.147Z,5.00
2023-04-16T03:39:04.523Z,5.00
2023-04-16T03:41:32.598Z,5.00
2023-04-16T03:44:01.286Z,4.92
2023-04-16T03:46:29.628Z,4.80
2023-04-16T03:48:58.661Z,4.70
2023-04-16T03:51:27.245Z,4.70
2023-04-16T03:53:55.283Z,4.60
2023-04-16T03:56:24.289Z,4.58
2023-04-16T03:58:52.679Z,4.60
2023-04-16T04:01:20.735Z,4.62
2023-04-16T04:03:49.118Z,4.60
2023-04-16T04:06:17.402Z,4.66
2023-04-16T04:08:45.439Z,4.70
2023-04-16T04:11:14.779Z,4.60
2023-04-16T04:13:43.669Z,4.50
2023-04-16T04:16:11.883Z,4.50
2023-04-16T04:18:40.220Z,4.60
2023-04-16T04:21:09.005Z,4.60
2023-04-16T04:23:37.023Z,4.70
2023-04-16T04:26:07.782Z,4.80
2023-04-16T04:28:36.172Z,4.80
2023-04-16T04:31:04.462Z,4.90
2023-04-16T04:33:32.850Z,4.90
2023-04-16T04:36:01.221Z,5.00
2023-04-16T04:38:30.578Z,5.00
2023-04-16T04:40:59.511Z,5.02
2023-04-16T04:43:28.093Z,5.10
2023-04-16T04:45:56.209Z,5.20
2023-04-16T04:48:28.460Z,5.20
2023-04-16T04:50:56.921Z,5.20
2023-04-16T04:53:25.202Z,5.30
2023-04-16T04:55:55.577Z,5.40
2023-04-16T04:58:25.738Z,5.50
2023-04-16T05:00:53.750Z,5.50
2023-04-16T05:03:22.094Z,5.60
2023-04-16T05:05:50.212Z,5.70
2023-04-16T05:08:18.313Z,5.80
2023-04-16T05:10:46.305Z,5.80
2023-04-16T05:13:14.471Z,5.82
2023-04-16T05:15:42.764Z,5.90
2023-04-16T05:18:10.928Z,6.00
2023-04-16T05:20:39.001Z,6.00
2023-04-16T05:23:07.076Z,6.00
2023-04-16T05:25:35.872Z,6.10
2023-04-16T05:28:04.175Z,6.02
2023-04-16T05:30:32.319Z,6.10
2023-04-16T05:33:00.512Z,6.10
2023-04-16T05:35:28.651Z,6.20
2023-04-16T05:37:57.128Z,6.20
2023-04-16T05:40:25.206Z,6.30
2023-04-16T05:42:53.271Z,6.34
2023-04-16T05:45:21.646Z,6.50
2023-04-16T05:47:49.955Z,6.60
2023-04-16T05:50:18.096Z,6.80
2023-04-16T05:52:46.374Z,6.90
2023-04-16T05:55:14.417Z,7.00
2023-04-16T05:57:42.568Z,7.10
2023-04-16T06:00:11.412Z,7.30
2023-04-16T06:02:42.435Z,7.40
2023-04-16T06:05:11.190Z,7.50
2023-04-16T06:07:39.228Z,7.60
2023-04-16T06:10:07.927Z,7.70
2023-04-16T06:12:36.398Z,7.70
2023-04-16T06:15:05.650Z,7.90
2023-04-16T06:17:33.747Z,8.00
2023-04-16T06:20:01.910Z,8.20
2023-04-16T06:22:30.084Z,8.30
2023-04-16T06:25:05.409Z,8.40
2023-04-16T06:27:33.906Z,8.44
2023-04-16T06:30:02.184Z,8.50
2023-04-16T06:32:30.492Z,8.60
2023-04-16T06:34:58.963Z,8.60
2023-04-16T06:37:27.035Z,8.70
2023-04-16T06:40:20.560Z,8.72
2023-04-16T06:42:48.832Z,8.80
2023-04-16T06:45:27.927Z,8.88
2023-04-16T06:48:03.536Z,9.00
2023-04-16T06:50:34.684Z,9.10
2023-04-16T06:53:39.847Z,9.20
2023-04-16T06:56:33.618Z,9.30
2023-04-16T06:59:07.418Z,9.40
2023-04-16T07:01:36.518Z,9.40
2023-04-16T07:04:05.527Z,9.50
2023-04-16T07:06:33.755Z,9.70
2023-04-16T07:09:01.823Z,9.80
2023-04-16T07:11:30.349Z,9.90
2023-04-16T07:13:59.149Z,10.00
2023-04-16T07:16:27.330Z,10.10
2023-04-16T07:18:55.434Z,10.28
2023-04-16T07:21:23.625Z,10.40
2023-04-16T07:23:51.764Z,10.50
2023-04-16T07:26:19.906Z,10.60
2023-04-16T07:28:51.009Z,10.70
2023-04-16T07:31:19.221Z,10.80
2023-04-16T07:33:47.855Z,10.90
2023-04-16T07:36:15.958Z,11.02
2023-04-16T07:38:44.007Z,11.16
2023-04-16T07:41:12.100Z,11.30
2023-04-16T07:43:40.121Z,11.30
2023-04-16T07:46:08.283Z,11.40
2023-04-16T07:48:36.474Z,11.56
2023-04-16T07:51:07.981Z,11.62
2023-04-16T07:53:38.853Z,11.78
2023-04-16T07:56:07.576Z,11.90
2023-04-16T07:59:18.529Z,12.00
2023-04-16T08:02:23.624Z,12.12
2023-04-16T08:05:23.072Z,12.30
2023-04-16T08:08:08.228Z,12.40
2023-04-16T08:11:25.338Z,12.52
2023-04-16T08:14:07.591Z,12.70
2023-04-16T08:16:42.071Z,12.80
2023-04-16T08:19:18.657Z,12.92
2023-04-16T08:22:21.921Z,13.00
2023-04-16T08:25:03.133Z,13.20
2023-04-16T08:27:31.179Z,13.20
2023-04-16T08:30:12.299Z,13.30
2023-04-16T08:32:48.736Z,13.40
2023-04-16T08:35:20.553Z,13.50
2023-04-16T08:37:58.071Z,13.60
2023-04-16T08:40:31.751Z,13.70
2023-04-16T08:43:05.834Z,13.86
2023-04-16T08:45:37.030Z,14.00
2023-04-16T08:48:30.990Z,14.10
2023-04-16T08:51:19.646Z,14.10
2023-04-16T08:54:28.646Z,14.10
2023-04-16T08:57:30.838Z,14.10
2023-04-16T09:00:23.814Z,14.08
2023-04-16T09:02:57.558Z,14.10
2023-04-16T09:05:46.120Z,14.22
2023-04-16T09:08:46.731Z,14.30
2023-04-16T09:11:32.373Z,14.50
2023-04-16T09:14:13.663Z,14.60
2023-04-16T09:17:01.294Z,14.70
2023-04-16T09:19:45.622Z,14.80
2023-04-16T09:22:19.999Z,14.82
2023-04-16T09:24:54.380Z,14.90
2023-04-16T09:27:39.609Z,15.00
2023-04-16T09:30:29.468Z,15.20
2023-04-16T09:33:40.791Z,15.30
2023-04-16T09:36:14.598Z,15.40
2023-04-16T09:39:00.794Z,15.60
2023-04-16T09:41:39.952Z,15.62
2023-04-16T09:44:25.044Z,15.80
2023-04-16T09:47:04.597Z,15.90
2023-04-16T09:49:43.316Z,16.00
2023-04-16T09:52:20.308Z,16.00
2023-04-16T09:54:59.738Z,16.10
2023-04-16T09:57:35.886Z,16.10
2023-04-16T10:00:18.431Z,16.30
2023-04-16T10:03:12.752Z,16.30
2023-04-16T10:05:51.504Z,16.40
2023-04-16T10:08:22.852Z,16.50
2023-04-16T10:10:59.361Z,16.60
2023-04-16T10:13:31.879Z,16.70
2023-04-16T10:16:05.354Z,16.78
2023-04-16T10:18:40.450Z,16.76
2023-04-16T10:21:09.178Z,16.80
2023-04-16T10:23:45.117Z,16.84
2023-04-16T10:26:36.071Z,17.00
2023-04-16T10:29:14.694Z,17.10
2023-04-16T10:31:54.611Z,17.20
2023-04-16T10:34:31.419Z,17.30
2023-04-16T10:37:15.085Z,17.42
2023-04-16T10:39:52.028Z,17.64
2023-04-16T10:42:27.747Z,18.00
2023-04-16T10:45:12.119Z,18.40
2023-04-16T10:47:45.620Z,18.50
2023-04-16T10:50:22.669Z,18.50
2023-04-16T10:53:28.487Z,18.54
2023-04-16T10:56:23.521Z,18.70
2023-04-16T10:58:56.912Z,19.00
2023-04-16T11:01:41.497Z,19.04
2023-04-16T11:04:31.371Z,18.90
2023-04-16T11:07:14.361Z,19.00
2023-04-16T11:10:04.186Z,19.16
2023-04-16T11:12:40.140Z,19.30
2023-04-16T11:15:09.952Z,19.30
2023-04-16T11:17:45.117Z,19.42
2023-04-16T11:20:23.527Z,19.42
2023-04-16T11:22:55.897Z,19.36
2023-04-16T11:25:30.006Z,19.40
2023-04-16T11:28:03.778Z,19.46
2023-04-16T11:30:34.183Z,19.40
2023-04-16T11:33:13.564Z,19.40
2023-04-16T11:35:46.037Z,19.50
2023-04-16T11:38:24.008Z,19.50
2023-04-16T11:40:54.202Z,19.34
2023-04-16T11:43:27.916Z,19.10
2023-04-16T11:46:20.504Z,19.10
2023-04-16T11:48:57.214Z,19.10
2023-04-16T11:51:30.874Z,19.24
2023-04-16T11:54:12.061Z,19.30
2023-04-16T11:56:51.984Z,19.40
2023-04-16T11:59:33.376Z,19.48
2023-04-16T12:02:09.458Z,19.64
2023-04-16T12:04:45.120Z,20.06
2023-04-16T12:07:27.567Z,20.10
2023-04-16T12:10:14.053Z,20.00
2023-04-16T12:12:45.277Z,20.16
2023-04-16T12:15:16.446Z,20.10
2023-04-16T12:17:44.700Z,20.22
2023-04-16T12:20:14.040Z,20.44
2023-04-16T12:22:47.165Z,20.48
2023-04-16T12:25:17.193Z,20.40
2023-04-16T12:27:51.473Z,20.32
2023-04-16T12:30:25.099Z,20.10
2023-04-16T12:33:18.388Z,19.82
2023-04-16T12:35:46.730Z,19.60
2023-04-16T12:38:17.563Z,19.60
2023-04-16T12:40:45.763Z,19.60
2023-04-16T12:43:14.089Z,19.56
2023-04-16T12:45:42.601Z,19.50
2023-04-16T12:48:11.092Z,19.52
2023-04-16T12:50:39.954Z,19.58
2023-04-16T12:53:08.149Z,19.60
2023-04-16T12:55:36.173Z,19.70
2023-04-16T12:58:04.207Z,19.74
2023-04-16T13:00:32.958Z,19.60
2023-04-16T13:03:01.334Z,19.50
2023-04-16T13:05:43.576Z,19.50
2023-04-16T13:08:21.906Z,19.44
2023-04-16T13:11:07.271Z,19.50
2023-04-16T13:13:44.486Z,19.32
2023-04-16T13:16:28.406Z,19.26
2023-04-16T13:19:11.165Z,19.20
2023-04-16T13:21:48.491Z,19.20
2023-04-16T13:24:19.735Z,19.20
2023-04-16T13:26:48.006Z,19.14
2023-04-16T13:29:16.320Z,19.20
2023-04-16T13:31:44.757Z,19.10
2023-04-16T13:34:13.137Z,18.96
2023-04-16T13:36:41.893Z,18.80
2023-04-16T13:39:27.665Z,18.62
2023-04-16T13:42:13.076Z,18.26
2023-04-16T13:45:01.440Z,17.72
2023-04-16T13:47:49.789Z,17.30
2023-04-16T13:50:35.839Z,16.80
2023-04-16T13:53:12.922Z,16.48
2023-04-16T13:55:52.857Z,16.22
2023-04-16T13:58:37.476Z,16.10
2023-04-16T14:01:14.259Z,15.98
2023-04-16T14:04:02.014Z,15.80
2023-04-16T14:06:52.367Z,15.66
2023-04-16T14:09:46.275Z,15.50
2023-04-16T14:12:34.016Z,15.46
2023-04-16T14:15:29.963Z,15.52
2023-04-16T14:18:17.556Z,15.46
2023-04-16T14:21:18.081Z,15.40
2023-04-16T14:24:06.590Z,15.30
2023-04-16T14:26:54.229Z,15.30
2023-04-16T14:29:37.685Z,15.40
2023-04-16T14:32:40.510Z,15.60
2023-04-16T14:35:36.475Z,15.60
2023-04-16T14:38:48.967Z,15.78
2023-04-16T14:41:44.247Z,15.80
2023-04-16T14:44:29.707Z,15.80
2023-04-16T14:47:38.456Z,15.80
2023-04-16T14:50:37.847Z,15.84
2023-04-16T14:53:23.085Z,15.80
2023-04-16T14:56:06.012Z,15.90
2023-04-16T14:58:45.420Z,16.00
2023-04-16T15:01:36.274Z,16.00
2023-04-16T15:04:24.750Z,16.08
2023-04-16T15:07:09.650Z,16.10
2023-04-16T15:10:01.078Z,16.20
2023-04-16T15:12:38.306Z,16.28
2023-04-16T15:15:10.280Z,16.40
2023-04-16T15:17:52.014Z,16.30
2023-04-16T15:20:31.886Z,16.30
2023-04-16T15:23:00.334Z,16.30
2023-04-16T15:26:21.085Z,16.34
2023-04-16T15:28:57.164Z,16.30
2023-04-16T15:31:26.403Z,16.30
2023-04-16T15:34:02.584Z,16.26
2023-04-16T15:36:30.859Z,16.20
2023-04-16T15:39:07.241Z,16.18
2023-04-16T15:42:02.225Z,15.88
2023-04-16T15:44:38.242Z,15.30
2023-04-16T15:47:20.934Z,14.98
2023-04-16T15:49:54.997Z,14.80
2023-04-16T15:52:31.088Z,14.56
2023-04-16T15:55:09.134Z,14.36
2023-04-16T15:57:37.520Z,14.20
2023-04-16T16:00:17.734Z,14.10
2023-04-16T16:02:51.818Z,14.00
2023-04-16T16:05:37.528Z,14.00
2023-04-16T16:08:23.951Z,14.00
2023-04-16T16:10:59.092Z,13.90
2023-04-16T16:13:49.301Z,13.80
2023-04-16T16:16:40.888Z,13.80
2023-04-16T16:19:17.669Z,13.82
2023-04-16T16:21:53.188Z,13.90
2023-04-16T16:24:29.754Z,13.90
2023-04-16T16:27:06.411Z,13.98
2023-04-16T16:29:37.038Z,14.00
2023-04-16T16:32:16.825Z,14.00
2023-04-16T16:34:50.460Z,14.10
2023-04-16T16:37:32.432Z,14.10
2023-04-16T16:40:23.810Z,14.10
2023-04-16T16:43:41.079Z,14.10
2023-04-16T16:46:31.481Z,14.10
2023-04-16T16:49:20.760Z,14.10
2023-04-16T16:52:13.234Z,14.10
2023-04-16T16:54:50.502Z,14.00
2023-04-16T16:57:19.678Z,14.00
2023-04-16T16:59:55.785Z,14.00
2023-04-16T17:02:24.135Z,14.00
2023-04-16T17:04:52.978Z,14.00
2023-04-16T17:07:21.200Z,14.00
2023-04-16T17:10:07.138Z,14.00
2023-04-16T17:12:38.232Z,13.90
2023-04-16T17:15:06.728Z,13.80
2023-04-16T17:17:34.859Z,13.72
2023-04-16T17:20:33.984Z,13.64
2023-04-16T17:23:18.474Z,13.60
2023-04-16T17:26:12.047Z,13.60
2023-04-16T17:28:57.966Z,13.60
2023-04-16T17:32:12.462Z,13.50
2023-04-16T17:35:18.228Z,13.50
2023-04-16T17:38:06.234Z,13.50
2023-04-16T17:41:29.043Z,13.50
2023-04-16T17:44:29.021Z,13.40
2023-04-16T17:47:19.539Z,13.42
2023-04-16T17:50:05.248Z,13.40
2023-04-16T17:52:47.791Z,13.40
2023-04-16T17:55:22.587Z,13.48
2023-04-16T17:57:53.166Z,13.50
2023-04-16T18:00:41.280Z,13.58
2023-04-16T18:03:28.120Z,13.58
2023-04-16T18:06:08.250Z,13.60
2023-04-16T18:08:50.726Z,13.60
2023-04-16T18:11:18.839Z,13.70
2023-04-16T18:13:54.029Z,13.64
2023-04-16T18:16:25.377Z,13.70
2023-04-16T18:19:18.734Z,13.70
2023-04-16T18:22:09.708Z,13.70
2023-04-16T18:24:38.404Z,13.70
2023-04-16T18:27:25.398Z,13.70
2023-04-16T18:30:20.057Z,13.70
2023-04-16T18:35:50.803Z,13.74
2023-04-16T18:38:49.671Z,13.70
2023-04-16T18:41:43.532Z,13.70
2023-04-16T18:44:42.450Z,13.70
2023-04-16T18:47:46.619Z,13.70
2023-04-16T18:50:26.315Z,13.60
2023-04-16T18:52:57.342Z,13.60
2023-04-16T18:55:36.473Z,13.60
2023-04-16T18:58:15.704Z,13.58
2023-04-16T19:01:21.747Z,13.50
2023-04-16T19:03:56.242Z,13.50
2023-04-16T19:06:45.105Z,13.48
2023-04-16T19:09:28.017Z,13.40
2023-04-16T19:12:11.194Z,13.40
2023-04-16T19:14:50.162Z,13.34
2023-04-16T19:17:23.948Z,13.30
2023-04-16T19:19:59.614Z,13.20
2023-04-16T19:22:38.737Z,13.20
2023-04-16T19:25:27.944Z,13.20
2023-04-16T19:28:31.350Z,13.10
2023-04-16T19:31:26.150Z,13.10
2023-04-16T19:34:12.348Z,13.06
2023-04-16T19:37:07.917Z,13.00
2023-04-16T19:39:46.735Z,12.98
2023-04-16T19:42:23.863Z,12.90
2023-04-16T19:44:58.152Z,12.90
2023-04-16T19:47:43.310Z,12.84
2023-04-16T19:50:49.475Z,12.80
2023-04-16T19:53:34.793Z,12.80
2023-04-16T19:56:42.897Z,12.70
2023-04-16T20:00:09.409Z,12.60
2023-04-16T20:02:53.782Z,12.60
2023-04-16T20:05:31.271Z,12.58
2023-04-16T20:08:19.237Z,12.50
2023-04-16T20:11:05.502Z,12.50
2023-04-16T20:14:03.592Z,12.50
2023-04-16T20:16:32.241Z,12.50
2023-04-16T20:19:38.008Z,12.50
2023-04-16T20:22:27.354Z,12.40
2023-04-16T20:25:26.618Z,12.40
2023-04-16T20:28:14.640Z,12.40
2023-04-16T20:31:12.730Z,12.36
2023-04-16T20:34:11.347Z,12.34
2023-04-16T20:37:08.920Z,12.30
2023-04-16T20:40:07.544Z,12.30
2023-04-16T20:42:54.421Z,12.30
2023-04-16T20:45:46.266Z,12.30
2023-04-16T20:48:17.871Z,12.20
2023-04-16T20:50:46.410Z,12.20
2023-04-16T20:53:15.005Z,12.20
2023-04-16T20:55:56.902Z,12.20
2023-04-16T20:58:25.282Z,12.20
2023-04-16T21:01:00.967Z,12.16
2023-04-16T21:03:44.240Z,12.16
2023-04-16T21:06:33.133Z,12.10
2023-04-16T21:09:13.244Z,12.10
2023-04-16T21:11:57.169Z,12.10
2023-04-16T21:14:34.675Z,12.10
2023-04-16T21:17:14.237Z,12.10
2023-04-16T21:19:54.432Z,12.02
2023-04-16T21:22:58.735Z,12.00
2023-04-16T21:25:34.970Z,11.92
2023-04-16T21:28:16.849Z,11.92
2023-04-16T21:31:06.764Z,11.90
2023-04-16T21:33:58.527Z,11.90
2023-04-16T21:36:47.816Z,11.90
2023-04-16T21:39:31.878Z,11.90
2023-04-16T21:42:22.161Z,11.90
2023-04-16T21:45:43.099Z,11.90
2023-04-16T21:48:28.755Z,11.90
2023-04-16T21:51:06.332Z,11.90
2023-04-16T21:53:34.487Z,11.90
2023-04-16T21:56:03.784Z,11.90
2023-04-16T21:59:19.121Z,11.90
2023-04-16T22:02:05.154Z,11.90
2023-04-16T22:04:39.559Z,11.90
2023-04-16T22:07:11.851Z,11.90
2023-04-16T22:09:40.946Z,11.90
2023-04-16T22:12:12.188Z,11.90
2023-04-16T22:14:46.293Z,11.90
2023-04-16T22:17:24.076Z,11.80
2023-04-16T22:19:53.585Z,11.80
2023-04-16T22:22:22.269Z,11.80
2023-04-16T22:24:50.446Z,11.70
2023-04-16T22:27:18.794Z,11.66
2023-04-16T22:29:47.407Z,11.62
2023-04-16T22:32:15.735Z,11.60
2023-04-16T22:34:44.214Z,11.60
2023-04-16T22:37:12.643Z,11.60
2023-04-16T22:39:40.917Z,11.58
2023-04-16T22:42:09.301Z,11.54
2023-04-16T22:44:37.580Z,11.50
2023-04-16T22:47:05.648Z,11.60
2023-04-16T22:49:33.728Z,11.58
2023-04-16T22:52:02.991Z,11.50
2023-04-16T22:54:32.004Z,11.40
2023-04-16T22:57:00.176Z,11.40
2023-04-16T22:59:28.252Z,11.40
2023-04-16T23:01:56.752Z,11.38
2023-04-16T23:04:25.136Z,11.30
2023-04-16T23:06:53.286Z,11.30
2023-04-16T23:09:22.687Z,11.30
2023-04-16T23:11:50.997Z,11.30
2023-04-16T23:14:19.568Z,11.30
2023-04-16T23:16:47.830Z,11.30
2023-04-16T23:19:16.150Z,11.30
2023-04-16T23:21:44.788Z,11.30
2023-04-16T23:24:12.858Z,11.28
2023-04-16T23:26:41.015Z,11.30
2023-04-16T23:29:09.469Z,11.28
2023-04-16T23:31:37.927Z,11.30
2023-04-16T23:34:06.261Z,11.20
2023-04-16T23:36:34.379Z,11.30
2023-04-16T23:39:02.618Z,11.24
2023-04-16T23:41:30.830Z,11.20
2023-04-16T23:43:59.265Z,11.20
2023-04-16T23:46:27.586Z,11.20
2023-04-16T23:48:55.819Z,11.20
2023-04-16T23:51:23.989Z,11.20
2023-04-16T23:53:52.062Z,11.20
2023-04-16T23:56:20.238Z,11.20
2023-04-16T23:58:48.419Z,11.20
